createdAt,value
2018-09-27T00:00:37.212Z,1.80
2018-09-27T00:03:06.675Z,2.03
2018-09-27T00:05:36.251Z,2.10
2018-09-27T00:08:05.782Z,1.80
2018-09-27T00:10:35.258Z,1.73
2018-09-27T00:13:04.729Z,2.20
2018-09-27T00:15:34.148Z,1.80
2018-09-27T00:18:03.877Z,1.90
2018-09-27T00:20:33.482Z,1.77
2018-09-27T00:23:02.957Z,1.87
2018-09-27T00:25:32.362Z,2.00
2018-09-27T00:28:02.098Z,2.00
2018-09-27T00:30:31.703Z,1.87
2018-09-27T00:33:01.309Z,1.70
2018-09-27T00:35:30.915Z,1.80
2018-09-27T00:38:00.352Z,1.80
2018-09-27T00:40:29.924Z,1.93
2018-09-27T00:42:59.432Z,2.03
2018-09-27T00:45:28.998Z,1.83
2018-09-27T00:47:58.441Z,2.10
2018-09-27T00:50:27.847Z,2.00
2018-09-27T00:52:57.325Z,1.70
2018-09-27T00:55:26.949Z,2.07
2018-09-27T00:57:56.516Z,2.10
2018-09-27T01:00:25.979Z,1.90
2018-09-27T01:02:56.018Z,2.10
2018-09-27T01:05:25.581Z,1.90
2018-09-27T01:07:54.972Z,2.13
2018-09-27T01:10:24.382Z,1.93
2018-09-27T01:12:54.147Z,1.93
2018-09-27T01:15:23.787Z,2.00
2018-09-27T01:17:53.355Z,2.00
2018-09-27T01:20:22.741Z,2.23
2018-09-27T01:22:52.244Z,2.20
2018-09-27T01:25:21.821Z,2.53
2018-09-27T01:27:51.340Z,2.20
2018-09-27T01:30:20.790Z,2.43
2018-09-27T01:32:50.271Z,2.20
2018-09-27T01:35:19.842Z,2.20
2018-09-27T01:37:49.544Z,2.30
2018-09-27T01:40:19.052Z,2.43
2018-09-27T01:42:48.475Z,2.23
2018-09-27T01:45:17.860Z,2.37
2018-09-27T01:47:47.562Z,2.20
2018-09-27T01:50:17.081Z,2.20
2018-09-27T01:52:46.748Z,1.83
2018-09-27T01:55:16.382Z,2.03
2018-09-27T01:57:46.054Z,2.20
2018-09-27T02:00:15.598Z,2.10
2018-09-27T02:02:45.203Z,2.30
2018-09-27T02:05:14.809Z,2.03
2018-09-27T02:07:44.253Z,2.50
2018-09-27T02:10:13.676Z,2.13
2018-09-27T02:12:43.274Z,2.30
2018-09-27T02:15:12.692Z,2.40
2018-09-27T02:17:42.280Z,2.40
2018-09-27T02:20:12.143Z,2.37
2018-09-27T02:22:41.738Z,2.50
2018-09-27T02:25:11.475Z,2.33
2018-09-27T02:27:40.964Z,2.20
2018-09-27T02:30:10.569Z,2.13
2018-09-27T02:32:40.194Z,2.00
2018-09-27T02:35:09.589Z,2.03
2018-09-27T02:37:39.088Z,2.10
2018-09-27T02:40:09.248Z,2.30
2018-09-27T02:42:38.912Z,2.40
2018-09-27T02:45:08.618Z,2.50
2018-09-27T02:47:38.084Z,2.50
2018-09-27T02:50:07.830Z,2.50
2018-09-27T02:52:37.557Z,2.50
2018-09-27T02:55:07.153Z,2.50
2018-09-27T02:57:36.653Z,2.30
2018-09-27T03:00:06.190Z,2.33
2018-09-27T03:02:36.089Z,2.50
2018-09-27T03:05:06.128Z,2.60
2018-09-27T03:07:36.149Z,2.37
2018-09-27T03:10:05.932Z,2.67
2018-09-27T03:12:35.365Z,2.40
2018-09-27T03:15:05.024Z,2.50
2018-09-27T03:17:34.732Z,2.20
2018-09-27T03:20:04.441Z,2.70
2018-09-27T03:22:34.055Z,2.60
2018-09-27T03:25:03.680Z,2.30
2018-09-27T03:27:33.366Z,2.40
2018-09-27T03:30:02.928Z,2.40
2018-09-27T03:32:32.625Z,2.40
2018-09-27T03:35:02.196Z,2.77
2018-09-27T03:37:31.789Z,2.40
2018-09-27T03:40:01.262Z,2.30
2018-09-27T03:42:30.914Z,2.60
2018-09-27T03:45:00.304Z,2.50
2018-09-27T03:47:30.117Z,2.70
2018-09-27T03:49:59.517Z,2.43
2018-09-27T03:52:29.192Z,2.57
2018-09-27T03:54:58.836Z,2.67
2018-09-27T03:57:28.267Z,2.60
2018-09-27T03:59:58.008Z,2.50
2018-09-27T04:02:27.615Z,2.70
2018-09-27T04:04:57.284Z,2.70
2018-09-27T04:07:26.965Z,2.70
2018-09-27T04:09:56.428Z,2.70
2018-09-27T04:12:25.965Z,2.50
2018-09-27T04:14:55.381Z,2.60
2018-09-27T04:17:24.863Z,2.70
2018-09-27T04:19:54.343Z,2.53
2018-09-27T04:22:23.995Z,2.57
2018-09-27T04:24:53.608Z,2.60
2018-09-27T04:27:23.013Z,2.80
2018-09-27T04:29:52.429Z,2.83
2018-09-27T04:32:21.991Z,2.60
2018-09-27T04:34:51.461Z,2.63
2018-09-27T04:37:21.024Z,2.80
2018-09-27T04:39:50.459Z,3.00
2018-09-27T04:42:20.026Z,2.70
2018-09-27T04:44:49.464Z,2.50
2018-09-27T04:47:18.864Z,2.80
2018-09-27T04:49:48.393Z,2.90
2018-09-27T04:52:17.875Z,2.60
2018-09-27T04:54:47.345Z,3.10
2018-09-27T04:57:17.256Z,3.00
2018-09-27T04:59:46.712Z,3.10
2018-09-27T05:02:16.264Z,2.90
2018-09-27T05:04:45.688Z,2.70
2018-09-27T05:07:15.068Z,2.80
2018-09-27T05:09:44.761Z,2.93
2018-09-27T05:12:14.904Z,2.70
2018-09-27T05:14:44.500Z,3.00
2018-09-27T05:17:14.212Z,2.90
2018-09-27T05:19:43.644Z,2.70
2018-09-27T05:22:13.121Z,2.70
2018-09-27T05:24:42.723Z,2.70
2018-09-27T05:27:12.470Z,2.60
2018-09-27T05:29:41.926Z,2.63
2018-09-27T05:32:11.330Z,2.90
2018-09-27T05:34:40.948Z,2.70
2018-09-27T05:37:10.491Z,2.50
2018-09-27T05:39:40.147Z,2.90
2018-09-27T05:42:09.673Z,3.00
2018-09-27T05:44:39.285Z,2.87
2018-09-27T05:47:08.684Z,2.67
2018-09-27T05:49:38.381Z,3.00
2018-09-27T05:52:08.093Z,2.53
2018-09-27T05:54:37.542Z,3.33
2018-09-27T05:57:07.151Z,3.03
2018-09-27T05:59:36.608Z,2.87
2018-09-27T06:02:06.294Z,3.17
2018-09-27T06:04:35.736Z,2.70
2018-09-27T06:07:05.267Z,2.57
2018-09-27T06:09:34.983Z,2.30
2018-09-27T06:12:04.838Z,2.50
2018-09-27T06:14:34.346Z,2.60
2018-09-27T06:17:03.849Z,2.70
2018-09-27T06:19:33.522Z,2.40
2018-09-27T06:22:02.972Z,2.43
2018-09-27T06:24:32.465Z,2.40
2018-09-27T06:27:01.857Z,2.97
2018-09-27T06:29:31.337Z,2.63
2018-09-27T06:32:00.858Z,2.47
2018-09-27T06:34:30.385Z,2.43
2018-09-27T06:36:59.885Z,2.77
2018-09-27T06:39:29.304Z,2.30
2018-09-27T06:41:58.859Z,2.70
2018-09-27T06:44:28.397Z,2.40
2018-09-27T06:46:57.868Z,2.50
2018-09-27T06:49:27.356Z,2.33
2018-09-27T06:51:56.765Z,2.80
2018-09-27T06:54:26.410Z,2.50
2018-09-27T06:56:56.020Z,2.60
2018-09-27T06:59:25.623Z,2.63
2018-09-27T07:01:55.155Z,2.60
2018-09-27T07:04:24.836Z,2.77
2018-09-27T07:06:54.545Z,2.70
2018-09-27T07:09:24.458Z,2.90
2018-09-27T07:11:54.151Z,2.70
2018-09-27T07:14:23.730Z,2.40
2018-09-27T07:16:53.340Z,2.80
2018-09-27T07:19:22.741Z,2.70
2018-09-27T07:21:52.208Z,2.53
2018-09-27T07:24:21.791Z,2.80
2018-09-27T07:26:51.748Z,2.67
2018-09-27T07:29:21.395Z,2.80
2018-09-27T07:31:51.021Z,2.80
2018-09-27T07:34:20.730Z,2.60
2018-09-27T07:36:50.341Z,2.63
2018-09-27T07:39:20.765Z,2.50
2018-09-27T07:41:50.235Z,2.60
2018-09-27T07:44:19.892Z,2.40
2018-09-27T07:46:49.479Z,2.40
2018-09-27T07:49:18.904Z,2.40
2018-09-27T07:51:48.371Z,2.30
2018-09-27T07:54:18.022Z,2.63
2018-09-27T07:56:47.702Z,2.40
2018-09-27T07:59:17.309Z,2.43
2018-09-27T08:01:46.922Z,2.40
2018-09-27T08:04:16.381Z,2.10
2018-09-27T08:06:45.849Z,2.17
2018-09-27T08:09:15.385Z,2.50
2018-09-27T08:11:45.126Z,2.30
2018-09-27T08:14:14.849Z,2.50
2018-09-27T08:16:44.419Z,2.53
2018-09-27T08:19:14.040Z,2.60
2018-09-27T08:21:43.565Z,2.80
2018-09-27T08:24:13.018Z,2.80
2018-09-27T08:26:42.610Z,2.30
2018-09-27T08:29:12.188Z,2.60
2018-09-27T08:31:41.783Z,2.30
2018-09-27T08:34:11.697Z,2.30
2018-09-27T08:36:41.303Z,2.50
2018-09-27T08:39:12.302Z,2.50
2018-09-27T08:41:41.804Z,2.20
2018-09-27T08:44:12.233Z,2.03
2018-09-27T08:46:42.601Z,2.00
2018-09-27T08:49:12.204Z,2.30
2018-09-27T08:51:41.669Z,2.50
2018-09-27T08:54:11.213Z,2.37
2018-09-27T08:56:40.818Z,2.50
2018-09-27T08:59:10.536Z,2.60
2018-09-27T09:01:40.287Z,2.70
2018-09-27T09:04:09.843Z,2.60
2018-09-27T09:06:39.460Z,2.20
2018-09-27T09:09:11.957Z,2.70
2018-09-27T09:11:41.809Z,2.13
2018-09-27T09:14:12.448Z,2.13
2018-09-27T09:16:41.865Z,2.27
2018-09-27T09:19:11.271Z,2.47
2018-09-27T09:21:40.809Z,2.05
2018-09-27T09:24:10.392Z,2.30
2018-09-27T09:26:39.989Z,2.13
2018-09-27T09:29:09.596Z,2.30
2018-09-27T09:31:39.081Z,2.00
2018-09-27T09:34:08.466Z,2.17
2018-09-27T09:36:37.905Z,2.12
2018-09-27T09:39:08.659Z,1.95
2018-09-27T09:41:38.448Z,1.90
2018-09-27T09:44:08.057Z,1.82
2018-09-27T09:46:37.559Z,1.80
2018-09-27T09:49:07.268Z,2.12
2018-09-27T09:51:36.776Z,1.82
2018-09-27T09:54:06.411Z,2.08
2018-09-27T09:56:35.796Z,2.00
2018-09-27T09:59:05.285Z,1.85
2018-09-27T10:01:34.701Z,1.92
2018-09-27T10:04:04.200Z,1.98
2018-09-27T10:06:34.181Z,2.20
2018-09-27T10:09:04.106Z,2.05
2018-09-27T10:11:33.576Z,2.17
2018-09-27T10:14:03.168Z,1.92
2018-09-27T10:16:32.680Z,2.17
2018-09-27T10:19:02.080Z,2.50
2018-09-27T10:21:31.712Z,2.40
2018-09-27T10:24:01.462Z,2.15
2018-09-27T10:26:30.868Z,2.12
2018-09-27T10:29:00.272Z,2.08
2018-09-27T10:31:29.969Z,2.00
2018-09-27T10:33:59.653Z,1.98
2018-09-27T10:36:29.052Z,2.20
2018-09-27T10:38:58.890Z,1.98
2018-09-27T10:41:28.750Z,2.00
2018-09-27T10:43:58.411Z,1.98
2018-09-27T10:46:28.023Z,1.70
2018-09-27T10:48:57.486Z,1.82
2018-09-27T10:51:27.090Z,1.32
2018-09-27T10:53:56.836Z,1.60
2018-09-27T10:56:26.301Z,1.47
2018-09-27T10:58:55.843Z,1.40
2018-09-27T11:01:25.212Z,1.40
2018-09-27T11:03:54.674Z,1.30
2018-09-27T11:06:24.256Z,1.85
2018-09-27T11:08:53.701Z,2.87
2018-09-27T11:11:23.551Z,1.25
2018-09-27T11:13:53.005Z,1.40
2018-09-27T11:16:22.583Z,1.10
2018-09-27T11:18:52.128Z,1.27
2018-09-27T11:21:21.689Z,1.22
2018-09-27T11:23:51.195Z,1.00
2018-09-27T11:26:22.258Z,1.22
2018-09-27T11:28:57.170Z,1.05
2018-09-27T11:31:31.995Z,1.10
2018-09-27T11:34:01.704Z,1.25
2018-09-27T11:36:31.204Z,1.15
2018-09-27T11:39:00.816Z,1.00
2018-09-27T11:41:30.525Z,1.07
2018-09-27T11:44:00.151Z,1.20
2018-09-27T11:46:29.748Z,1.20
2018-09-27T11:48:59.425Z,0.85
2018-09-27T11:51:28.849Z,1.05
2018-09-27T11:53:58.666Z,1.35
2018-09-27T11:56:28.072Z,1.07
2018-09-27T11:58:57.727Z,1.40
2018-09-27T12:01:27.406Z,1.00
2018-09-27T12:03:56.784Z,1.00
2018-09-27T12:06:26.659Z,1.30
2018-09-27T12:08:56.089Z,1.30
2018-09-27T12:11:25.805Z,1.12
2018-09-27T12:13:55.514Z,1.15
2018-09-27T12:16:25.031Z,1.30
2018-09-27T12:18:54.459Z,1.10
2018-09-27T12:21:24.129Z,1.05
2018-09-27T12:23:53.582Z,1.10
2018-09-27T12:26:23.140Z,1.30
2018-09-27T12:28:52.597Z,0.93
2018-09-27T12:31:22.256Z,1.30
2018-09-27T12:33:52.031Z,1.30
2018-09-27T12:36:21.571Z,1.00
2018-09-27T12:38:51.462Z,1.42
2018-09-27T12:41:21.085Z,1.30
2018-09-27T12:43:50.767Z,1.32
2018-09-27T12:46:20.391Z,1.50
2018-09-27T12:48:50.023Z,1.40
2018-09-27T12:51:19.899Z,1.25
2018-09-27T12:53:49.152Z,1.20
2018-09-27T12:56:18.735Z,1.37
2018-09-27T12:58:48.353Z,1.30
2018-09-27T13:01:18.076Z,1.55
2018-09-27T13:03:47.529Z,1.35
2018-09-27T13:06:17.255Z,1.30
2018-09-27T13:08:47.084Z,1.35
2018-09-27T13:11:16.583Z,1.50
2018-09-27T13:13:45.995Z,1.40
2018-09-27T13:16:15.579Z,1.45
2018-09-27T13:18:45.289Z,1.50
2018-09-27T13:21:14.999Z,1.50
2018-09-27T13:23:44.604Z,1.40
2018-09-27T13:26:14.023Z,1.42
2018-09-27T13:28:43.929Z,1.40
2018-09-27T13:31:13.288Z,1.40
2018-09-27T13:33:42.739Z,1.45
2018-09-27T13:36:12.432Z,1.40
2018-09-27T13:38:42.039Z,1.20
2018-09-27T13:41:11.575Z,1.42
2018-09-27T13:43:40.994Z,1.30
2018-09-27T13:46:10.885Z,1.22
2018-09-27T13:48:40.569Z,1.40
2018-09-27T13:51:10.038Z,1.40
2018-09-27T13:53:39.477Z,1.27
2018-09-27T13:56:09.131Z,1.60
2018-09-27T13:58:38.512Z,1.50
2018-09-27T14:01:08.260Z,1.50
2018-09-27T14:03:37.701Z,1.32
2018-09-27T14:06:06.932Z,1.20
2018-09-27T14:08:36.917Z,1.20
2018-09-27T14:11:06.736Z,1.40
2018-09-27T14:13:36.151Z,1.10
2018-09-27T14:16:05.887Z,1.30
2018-09-27T14:18:35.442Z,1.42
2018-09-27T14:21:04.947Z,1.47
2018-09-27T14:23:34.332Z,1.30
2018-09-27T14:26:03.989Z,1.45
2018-09-27T14:28:33.416Z,1.15
2018-09-27T14:31:03.065Z,1.30
2018-09-27T14:33:32.784Z,1.27
2018-09-27T14:36:02.428Z,1.32
2018-09-27T14:38:32.141Z,1.30
2018-09-27T14:41:01.887Z,1.30
2018-09-27T14:43:31.312Z,1.50
2018-09-27T14:46:00.751Z,1.12
2018-09-27T14:48:30.224Z,1.40
2018-09-27T14:50:59.664Z,1.35
2018-09-27T14:53:29.330Z,1.30
2018-09-27T14:55:58.976Z,1.37
2018-09-27T14:58:28.580Z,1.10
2018-09-27T15:00:58.712Z,1.25
2018-09-27T15:03:28.335Z,1.40
2018-09-27T15:05:58.076Z,1.37
2018-09-27T15:08:27.639Z,1.10
2018-09-27T15:10:57.605Z,1.22
2018-09-27T15:13:27.200Z,1.40
2018-09-27T15:15:56.805Z,1.30
2018-09-27T15:18:26.421Z,1.47
2018-09-27T15:20:56.022Z,1.45
2018-09-27T15:23:25.632Z,1.50
2018-09-27T15:25:55.481Z,1.40
2018-09-27T15:28:25.011Z,1.40
2018-09-27T15:30:54.449Z,1.60
2018-09-27T15:33:23.896Z,1.42
2018-09-27T15:35:53.457Z,1.80
2018-09-27T15:38:22.908Z,1.50
2018-09-27T15:40:52.569Z,1.30
2018-09-27T15:43:22.077Z,1.30
2018-09-27T15:45:51.807Z,1.40
2018-09-27T15:48:21.594Z,1.55
2018-09-27T15:50:51.116Z,1.37
2018-09-27T15:53:20.808Z,1.50
2018-09-27T15:55:50.415Z,2.00
2018-09-27T15:58:20.125Z,1.72
2018-09-27T16:00:49.680Z,1.40
2018-09-27T16:03:19.384Z,1.67
2018-09-27T16:05:49.047Z,1.70
2018-09-27T16:08:18.872Z,1.82
2018-09-27T16:10:54.150Z,1.12
2018-09-27T16:13:23.806Z,1.40
2018-09-27T16:15:53.618Z,1.40
2018-09-27T16:18:23.475Z,1.70
2018-09-27T16:20:53.036Z,1.67
2018-09-27T16:23:22.544Z,1.75
2018-09-27T16:25:51.987Z,1.60
2018-09-27T16:28:21.456Z,1.60
2018-09-27T16:30:51.359Z,1.27
2018-09-27T16:33:20.853Z,1.27
2018-09-27T16:35:50.284Z,1.37
2018-09-27T16:38:19.975Z,1.42
2018-09-27T16:40:49.429Z,1.50
2018-09-27T16:43:18.932Z,1.55
2018-09-27T16:45:48.592Z,1.20
2018-09-27T16:48:18.202Z,1.30
2018-09-27T16:50:47.707Z,1.30
2018-09-27T16:53:17.168Z,1.20
2018-09-27T16:55:46.575Z,1.35
2018-09-27T16:58:16.044Z,1.50
2018-09-27T17:00:45.620Z,1.50
2018-09-27T17:03:15.104Z,1.73
2018-09-27T17:05:44.588Z,1.22
2018-09-27T17:08:14.044Z,1.20
2018-09-27T17:10:43.448Z,1.70
2018-09-27T17:13:13.495Z,1.40
2018-09-27T17:15:42.904Z,3.13
2018-09-27T17:18:12.504Z,1.70
2018-09-27T17:20:42.375Z,1.70
2018-09-27T17:23:12.031Z,1.60
2018-09-27T17:25:41.491Z,1.50
2018-09-27T17:28:11.052Z,1.50
2018-09-27T17:30:40.597Z,1.57
2018-09-27T17:33:10.243Z,1.33
2018-09-27T17:35:39.689Z,1.50
2018-09-27T17:38:09.135Z,1.67
2018-09-27T17:40:38.609Z,1.50
2018-09-27T17:43:08.046Z,1.30
2018-09-27T17:45:37.623Z,1.40
2018-09-27T17:48:07.272Z,1.37
2018-09-27T17:50:36.913Z,1.40
2018-09-27T17:53:06.594Z,1.50
2018-09-27T17:55:36.370Z,1.30
2018-09-27T17:58:06.369Z,1.67
2018-09-27T18:00:36.028Z,1.33
2018-09-27T18:03:05.668Z,1.50
2018-09-27T18:05:35.113Z,2.17
2018-09-27T18:08:04.673Z,8.43
2018-09-27T18:10:34.173Z,5.20
2018-09-27T18:13:03.808Z,3.40
2018-09-27T18:15:33.415Z,3.20
2018-09-27T18:18:03.106Z,2.40
2018-09-27T18:20:32.728Z,2.20
2018-09-27T18:23:02.438Z,2.10
2018-09-27T18:25:31.987Z,1.63
2018-09-27T18:28:01.494Z,1.87
2018-09-27T18:30:31.260Z,1.80
2018-09-27T18:33:00.967Z,2.00
2018-09-27T18:35:30.362Z,2.43
2018-09-27T18:37:59.995Z,2.20
2018-09-27T18:40:29.421Z,1.97
2018-09-27T18:42:59.025Z,1.90
2018-09-27T18:45:28.715Z,1.77
2018-09-27T18:47:58.371Z,2.10
2018-09-27T18:50:28.030Z,2.10
2018-09-27T18:52:57.736Z,3.20
2018-09-27T18:55:27.631Z,1.80
2018-09-27T18:57:57.649Z,1.73
2018-09-27T19:00:27.360Z,1.87
2018-09-27T19:02:57.643Z,2.10
2018-09-27T19:05:27.352Z,2.70
2018-09-27T19:07:57.176Z,2.20
2018-09-27T19:10:26.921Z,2.30
2018-09-27T19:12:56.608Z,1.70
2018-09-27T19:15:26.228Z,2.00
2018-09-27T19:17:55.950Z,1.97
2018-09-27T19:20:25.443Z,2.10
2018-09-27T19:22:55.254Z,1.90
2018-09-27T19:25:24.740Z,2.20
2018-09-27T19:27:54.678Z,2.37
2018-09-27T19:30:24.476Z,3.40
2018-09-27T19:32:54.169Z,2.40
2018-09-27T19:35:23.712Z,2.47
2018-09-27T19:37:53.366Z,2.17
2018-09-27T19:40:22.949Z,2.03
2018-09-27T19:42:52.722Z,2.23
2018-09-27T19:45:22.366Z,1.90
2018-09-27T19:47:52.545Z,2.00
2018-09-27T19:50:22.252Z,5.77
2018-09-27T19:52:51.940Z,4.10
2018-09-27T19:55:22.232Z,3.03
2018-09-27T19:57:52.108Z,3.37
2018-09-27T20:00:29.661Z,2.13
2018-09-27T20:03:01.565Z,4.60
2018-09-27T20:05:31.315Z,3.13
